createdAt,value
2019-02-19T00:00:02.607Z,6.22
2019-02-19T00:05:02.608Z,6.10
2019-02-19T00:10:03.105Z,6.22
2019-02-19T00:15:07.983Z,6.65
2019-02-19T00:20:02.988Z,5.58
2019-02-19T00:25:02.412Z,6.05
2019-02-19T00:30:02.872Z,5.95
2019-02-19T00:35:03.361Z,6.80
2019-02-19T00:40:02.891Z,8.60
2019-02-19T00:45:03.253Z,7.97
2019-02-19T00:50:02.679Z,7.35
2019-02-19T00:55:03.048Z,7.65
2019-02-19T01:00:02.534Z,8.50
2019-02-19T01:05:03.278Z,12.43
2019-02-19T01:10:02.685Z,8.95
2019-02-19T01:15:03.034Z,7.58
2019-02-19T01:20:02.646Z,10.50
2019-02-19T01:25:02.335Z,0
2019-02-19T01:30:02.803Z,9.73
2019-02-19T01:35:03.261Z,9.90
2019-02-19T01:40:02.694Z,11.00
2019-02-19T01:45:03.179Z,10.25
2019-02-19T01:50:02.691Z,10.23
2019-02-19T01:55:03.192Z,11.50
2019-02-19T02:00:02.705Z,12.03
2019-02-19T02:05:03.085Z,12.20
2019-02-19T02:10:02.593Z,11.35
2019-02-19T02:15:03.086Z,10.95
2019-02-19T02:20:02.604Z,10.80
2019-02-19T02:25:03.064Z,11.43
2019-02-19T02:30:02.436Z,12.60
2019-02-19T02:35:02.887Z,9.68
2019-02-19T02:40:02.400Z,8.83
2019-02-19T02:45:02.875Z,9.13
2019-02-19T02:50:03.238Z,9.63
2019-02-19T02:55:02.643Z,9.15
2019-02-19T03:00:03.027Z,10.72
2019-02-19T03:05:02.538Z,7.83
2019-02-19T03:10:03.140Z,8.90
2019-02-19T03:15:02.647Z,8.23
2019-02-19T03:20:03.139Z,8.18
2019-02-19T03:25:02.672Z,9.13
2019-02-19T03:30:03.159Z,9.00
2019-02-19T03:35:02.562Z,8.65
2019-02-19T03:40:03.161Z,9.60
2019-02-19T03:45:02.683Z,8.70
2019-02-19T03:50:03.087Z,9.33
2019-02-19T03:55:02.499Z,9.70
2019-02-19T04:00:03.447Z,9.43
2019-02-19T04:05:02.125Z,0
2019-02-19T04:10:02.593Z,9.50
2019-02-19T04:15:03.075Z,8.85
2019-02-19T04:20:02.582Z,10.80
2019-02-19T04:25:03.012Z,9.10
2019-02-19T04:30:02.482Z,11.08
2019-02-19T04:35:02.868Z,9.75
2019-02-19T04:40:03.455Z,10.03
2019-02-19T04:45:02.964Z,10.35
2019-02-19T04:50:02.516Z,9.90
2019-02-19T04:55:02.917Z,8.98
2019-02-19T05:00:03.471Z,9.98
2019-02-19T05:05:03.047Z,9.23
2019-02-19T05:10:02.637Z,11.97
2019-02-19T05:15:03.052Z,11.25
2019-02-19T05:20:02.533Z,13.08
2019-02-19T05:25:03.022Z,11.88
2019-02-19T05:30:02.660Z,12.80
2019-02-19T05:35:03.043Z,10.95
2019-02-19T05:40:02.540Z,11.45
2019-02-19T05:45:03.037Z,10.25
2019-02-19T05:50:02.438Z,10.72
2019-02-19T05:55:02.922Z,12.73
2019-02-19T06:00:03.403Z,9.58
2019-02-19T06:05:02.921Z,12.53
2019-02-19T06:10:02.458Z,11.05
2019-02-19T06:15:02.935Z,9.83
2019-02-19T06:20:03.499Z,12.00
2019-02-19T06:25:02.962Z,10.48
2019-02-19T06:30:02.474Z,10.75
2019-02-19T06:35:02.841Z,10.35
2019-02-19T06:40:02.729Z,0
2019-02-19T06:45:03.084Z,9.20
2019-02-19T06:50:02.601Z,10.10
2019-02-19T06:55:02.978Z,9.78
2019-02-19T07:00:02.371Z,8.85
2019-02-19T07:05:02.737Z,9.03
2019-02-19T07:10:03.221Z,9.30
2019-02-19T07:15:02.735Z,9.65
2019-02-19T07:20:03.126Z,8.88
2019-02-19T07:25:02.639Z,8.18
2019-02-19T07:30:03.007Z,8.33
2019-02-19T07:35:02.417Z,9.68
2019-02-19T07:40:03.022Z,8.45
2019-02-19T07:45:02.591Z,10.15
2019-02-19T07:50:03.029Z,7.97
2019-02-19T07:55:02.543Z,8.85
2019-02-19T08:00:03.264Z,9.33
2019-02-19T08:05:02.883Z,9.00
2019-02-19T08:10:03.396Z,9.90
2019-02-19T08:15:02.797Z,9.75
2019-02-19T08:20:03.403Z,10.23
2019-02-19T08:25:02.809Z,11.08
2019-02-19T08:30:03.301Z,8.65
2019-02-19T08:35:02.696Z,8.70
2019-02-19T08:40:03.193Z,9.23
2019-02-19T08:45:02.588Z,10.38
2019-02-19T08:50:03.068Z,8.65
2019-02-19T08:55:02.600Z,11.22
2019-02-19T09:00:03.076Z,10.45
2019-02-19T09:05:02.603Z,9.50
2019-02-19T09:10:03.212Z,11.85
2019-02-19T09:15:02.769Z,11.40
2019-02-19T09:20:03.212Z,9.53
2019-02-19T09:25:02.732Z,10.30
2019-02-19T09:30:02.274Z,0
2019-02-19T09:35:02.749Z,13.95
2019-02-19T09:40:03.250Z,12.07
2019-02-19T09:45:02.756Z,13.30
2019-02-19T09:50:03.120Z,13.43
2019-02-19T09:55:06.640Z,0
2019-02-19T10:00:05.092Z,13.58
2019-02-19T10:05:02.537Z,12.28
2019-02-19T10:10:03.150Z,15.83
2019-02-19T10:15:02.544Z,13.58
2019-02-19T10:20:02.224Z,0
2019-02-19T10:25:02.672Z,12.95
2019-02-19T10:30:03.039Z,13.20
2019-02-19T10:35:02.561Z,13.32
2019-02-19T10:40:03.039Z,14.18
2019-02-19T10:45:02.456Z,13.85
2019-02-19T10:50:02.805Z,11.45
2019-02-19T10:55:03.306Z,11.50
2019-02-19T11:00:02.820Z,12.68
2019-02-19T11:05:03.306Z,12.23
2019-02-19T11:10:02.825Z,11.97
2019-02-19T11:15:03.323Z,10.63
2019-02-19T11:20:02.708Z,12.10
2019-02-19T11:25:03.207Z,10.32
2019-02-19T11:30:02.718Z,12.20
2019-02-19T11:35:03.120Z,10.15
2019-02-19T11:40:02.605Z,11.63
2019-02-19T11:45:02.986Z,8.85
2019-02-19T11:50:02.410Z,9.55
2019-02-19T11:55:02.868Z,8.03
2019-02-19T12:00:03.359Z,7.45
2019-02-19T12:05:02.867Z,7.42
2019-02-19T12:10:03.363Z,7.78
2019-02-19T12:15:02.792Z,6.92
2019-02-19T12:20:03.250Z,7.42
2019-02-19T12:25:02.769Z,8.25
2019-02-19T12:30:03.141Z,7.92
2019-02-19T12:35:02.740Z,6.45
2019-02-19T12:40:03.268Z,6.90
2019-02-19T12:45:02.696Z,7.80
2019-02-19T12:50:03.155Z,7.33
2019-02-19T12:55:02.680Z,6.95
2019-02-19T13:00:03.056Z,7.30
2019-02-19T13:05:02.565Z,5.55
2019-02-19T13:10:03.243Z,5.12
2019-02-19T13:15:02.581Z,4.28
2019-02-19T13:20:03.059Z,4.53
2019-02-19T13:25:02.627Z,4.97
2019-02-19T13:30:03.069Z,4.05
2019-02-19T13:35:02.505Z,3.60
2019-02-19T13:40:03.080Z,3.85
2019-02-19T13:45:02.591Z,3.12
2019-02-19T13:50:03.089Z,3.00
2019-02-19T13:55:02.502Z,3.10
2019-02-19T14:00:02.971Z,3.05
2019-02-19T14:05:02.376Z,3.00
2019-02-19T14:10:02.981Z,3.40
2019-02-19T14:15:02.507Z,3.65
2019-02-19T14:20:02.879Z,3.52
2019-02-19T14:25:03.240Z,3.62
2019-02-19T14:30:02.632Z,3.67
2019-02-19T14:35:02.174Z,0
2019-02-19T14:40:09.976Z,3.35
2019-02-19T14:45:03.150Z,4.42
2019-02-19T14:50:02.661Z,3.87
2019-02-19T14:55:03.160Z,4.45
2019-02-19T15:00:03.239Z,4.30
2019-02-19T15:05:02.713Z,3.85
2019-02-19T15:10:03.285Z,3.58
2019-02-19T15:15:02.790Z,3.40
2019-02-19T15:20:03.215Z,3.30
2019-02-19T15:25:02.559Z,3.35
2019-02-19T15:30:03.050Z,3.42
2019-02-19T15:35:02.449Z,4.25
2019-02-19T15:40:02.952Z,3.20
2019-02-19T15:45:03.427Z,3.37
2019-02-19T15:50:02.054Z,0
2019-02-19T15:55:02.590Z,3.20
2019-02-19T16:00:03.355Z,2.50
2019-02-19T16:05:02.833Z,2.65
2019-02-19T16:10:03.324Z,2.60
2019-02-19T16:15:02.730Z,2.98
2019-02-19T16:20:03.211Z,2.70
2019-02-19T16:25:02.729Z,2.60
2019-02-19T16:30:03.231Z,2.90
2019-02-19T16:35:02.739Z,2.50
2019-02-19T16:40:03.432Z,2.70
2019-02-19T16:45:02.869Z,2.95
2019-02-19T16:50:07.593Z,2.90
2019-02-19T16:55:02.753Z,3.30
2019-02-19T17:00:03.136Z,2.90
2019-02-19T17:05:02.535Z,2.67
2019-02-19T17:10:03.021Z,2.98
2019-02-19T17:15:02.427Z,3.00
2019-02-19T17:20:02.914Z,2.92
2019-02-19T17:25:02.528Z,0
2019-02-19T17:30:02.918Z,3.00
2019-02-19T17:35:03.405Z,3.45
2019-02-19T17:40:02.949Z,3.12
2019-02-19T17:45:03.408Z,3.15
2019-02-19T17:50:02.802Z,3.47
2019-02-19T17:55:03.179Z,3.08
2019-02-19T18:00:02.693Z,3.33
2019-02-19T18:05:03.193Z,3.40
2019-02-19T18:10:02.585Z,3.83
2019-02-19T18:15:02.971Z,3.65
2019-02-19T18:20:02.353Z,2.98
2019-02-19T18:25:02.862Z,3.02
2019-02-19T18:30:03.328Z,3.25
2019-02-19T18:35:02.736Z,3.50
2019-02-19T18:40:03.218Z,3.30
2019-02-19T18:45:02.637Z,3.62
2019-02-19T18:50:03.107Z,3.00
2019-02-19T18:55:02.621Z,3.05
2019-02-19T19:00:03.109Z,3.02
2019-02-19T19:05:02.628Z,3.37
2019-02-19T19:10:03.196Z,3.50
2019-02-19T19:15:02.804Z,4.22
2019-02-19T19:20:03.257Z,3.65
2019-02-19T19:25:02.661Z,3.30
2019-02-19T19:30:03.025Z,4.33
2019-02-19T19:35:02.557Z,3.77
2019-02-19T19:40:03.171Z,3.35
2019-02-19T19:45:02.679Z,3.58
2019-02-19T19:50:03.343Z,3.37
2019-02-19T19:55:02.828Z,3.58
2019-02-19T20:00:03.213Z,3.85
2019-02-19T20:05:02.566Z,4.30
2019-02-19T20:10:03.189Z,4.10
2019-02-19T20:15:02.697Z,4.22
2019-02-19T20:20:03.103Z,3.77
2019-02-19T20:25:02.583Z,3.52
2019-02-19T20:30:03.459Z,4.00
2019-02-19T20:35:02.826Z,4.12
2019-02-19T20:40:03.322Z,3.65
2019-02-19T20:45:02.725Z,3.85
2019-02-19T20:50:03.211Z,3.87
2019-02-19T20:55:02.787Z,3.85
2019-02-19T21:00:02.817Z,0
2019-02-19T21:05:03.345Z,4.42
2019-02-19T21:10:02.782Z,4.58
2019-02-19T21:15:02.478Z,0
2019-02-19T21:20:02.991Z,5.30
2019-02-19T21:25:02.514Z,5.78
2019-02-19T21:30:03.007Z,6.40
2019-02-19T21:35:02.523Z,5.00
2019-02-19T21:40:03.136Z,4.90
2019-02-19T21:45:02.657Z,4.55
2019-02-19T21:50:03.029Z,4.30
2019-02-19T21:55:02.421Z,4.20
2019-02-19T22:00:02.794Z,4.80
2019-02-19T22:05:03.155Z,3.62
2019-02-19T22:10:02.665Z,4.12
2019-02-19T22:15:03.039Z,4.17
2019-02-19T22:20:03.455Z,4.60
2019-02-19T22:25:03.167Z,4.28
2019-02-19T22:30:02.582Z,4.15
2019-02-19T22:35:03.068Z,4.50
2019-02-19T22:40:02.574Z,4.08
2019-02-19T22:45:03.065Z,3.65
2019-02-19T22:50:02.584Z,3.65
2019-02-19T22:55:02.958Z,4.17
2019-02-19T23:00:03.539Z,4.45
2019-02-19T23:05:03.071Z,3.77
2019-02-19T23:10:02.606Z,4.08
2019-02-19T23:15:03.089Z,3.42
2019-02-19T23:20:02.603Z,4.20
2019-02-19T23:25:02.984Z,3.87
2019-02-19T23:30:02.377Z,3.98
2019-02-19T23:35:02.883Z,4.25
2019-02-19T23:40:03.360Z,3.87
2019-02-19T23:45:02.751Z,3.62
2019-02-19T23:50:03.123Z,3.80
2019-02-19T23:55:02.512Z,4.55
